sensor_id;sensor_type;location;lat;lon;timestamp;P1;durP1;ratioP1;P2;durP2;ratioP2
58470;SDS011;44258;51.288;12.068;2023-02-22T00:00:10;16.50;;;5.45;;
58470;SDS011;44258;51.288;12.068;2023-02-22T00:02:44;14.25;;;5.40;;
58470;SDS011;44258;51.288;12.068;2023-02-22T00:05:15;14.25;;;4.82;;
58470;SDS011;44258;51.288;12.068;2023-02-22T00:07:45;14.98;;;5.15;;
58470;SDS011;44258;51.288;12.068;2023-02-22T00:10:13;14.93;;;6.05;;
58470;SDS011;44258;51.288;12.068;2023-02-22T00:12:45;15.32;;;5.93;;
58470;SDS011;44258;51.288;12.068;2023-02-22T00:15:13;14.73;;;5.55;;
58470;SDS011;44258;51.288;12.068;2023-02-22T00:17:41;14.80;;;5.35;;
58470;SDS011;44258;51.288;12.068;2023-02-22T00:20:08;15.50;;;5.63;;
58470;SDS011;44258;51.288;12.068;2023-02-22T00:22:38;15.93;;;5.07;;
58470;SDS011;44258;51.288;12.068;2023-02-22T00:25:06;13.18;;;5.00;;
58470;SDS011;44258;51.288;12.068;2023-02-22T00:27:33;12.95;;;4.88;;
58470;SDS011;44258;51.288;12.068;2023-02-22T00:30:00;14.63;;;5.63;;
58470;SDS011;44258;51.288;12.068;2023-02-22T00:32:26;14.40;;;5.72;;
58470;SDS011;44258;51.288;12.068;2023-02-22T00:34:55;13.05;;;4.93;;
58470;SDS011;44258;51.288;12.068;2023-02-22T00:37:21;13.18;;;5.10;;
58470;SDS011;44258;51.288;12.068;2023-02-22T00:39:48;12.68;;;5.10;;
58470;SDS011;44258;51.288;12.068;2023-02-22T00:42:17;16.65;;;5.95;;
58470;SDS011;44258;51.288;12.068;2023-02-22T00:44:44;12.18;;;5.47;;
58470;SDS011;44258;51.288;12.068;2023-02-22T00:47:10;15.82;;;5.70;;
58470;SDS011;44258;51.288;12.068;2023-02-22T00:49:37;15.05;;;6.07;;
58470;SDS011;44258;51.288;12.068;2023-02-22T00:52:04;13.90;;;5.57;;
58470;SDS011;44258;51.288;12.068;2023-02-22T00:54:31;15.18;;;5.97;;
58470;SDS011;44258;51.288;12.068;2023-02-22T00:56:58;15.45;;;6.10;;
58470;SDS011;44258;51.288;12.068;2023-02-22T00:59:25;17.00;;;6.30;;
58470;SDS011;44258;51.288;12.068;2023-02-22T01:01:52;13.23;;;5.72;;
58470;SDS011;44258;51.288;12.068;2023-02-22T01:04:18;13.88;;;5.13;;
58470;SDS011;44258;51.288;12.068;2023-02-22T01:06:45;11.93;;;4.47;;
58470;SDS011;44258;51.288;12.068;2023-02-22T01:09:12;14.45;;;5.53;;
58470;SDS011;44258;51.288;12.068;2023-02-22T01:11:38;13.98;;;5.10;;
58470;SDS011;44258;51.288;12.068;2023-02-22T01:14:06;13.75;;;5.38;;
58470;SDS011;44258;51.288;12.068;2023-02-22T01:16:35;13.50;;;5.30;;
58470;SDS011;44258;51.288;12.068;2023-02-22T01:19:01;13.85;;;5.13;;
58470;SDS011;44258;51.288;12.068;2023-02-22T01:21:28;13.48;;;5.10;;
58470;SDS011;44258;51.288;12.068;2023-02-22T01:23:54;15.00;;;5.70;;
58470;SDS011;44258;51.288;12.068;2023-02-22T01:26:20;12.82;;;4.95;;
58470;SDS011;44258;51.288;12.068;2023-02-22T01:28:48;11.82;;;4.70;;
58470;SDS011;44258;51.288;12.068;2023-02-22T01:31:14;12.98;;;5.47;;
58470;SDS011;44258;51.288;12.068;2023-02-22T01:33:42;12.52;;;5.22;;
58470;SDS011;44258;51.288;12.068;2023-02-22T01:36:12;14.65;;;5.95;;
58470;SDS011;44258;51.288;12.068;2023-02-22T01:38:38;14.02;;;4.95;;
58470;SDS011;44258;51.288;12.068;2023-02-22T01:41:04;12.45;;;5.40;;
58470;SDS011;44258;51.288;12.068;2023-02-22T01:43:32;13.60;;;5.32;;
58470;SDS011;44258;51.288;12.068;2023-02-22T01:45:59;15.25;;;6.13;;
58470;SDS011;44258;51.288;12.068;2023-02-22T01:48:29;13.18;;;6.53;;
58470;SDS011;44258;51.288;12.068;2023-02-22T01:51:04;15.35;;;5.85;;
58470;SDS011;44258;51.288;12.068;2023-02-22T01:53:35;12.68;;;4.97;;
58470;SDS011;44258;51.288;12.068;2023-02-22T01:56:05;14.70;;;6.35;;
58470;SDS011;44258;51.288;12.068;2023-02-22T01:58:35;14.13;;;5.78;;
58470;SDS011;44258;51.288;12.068;2023-02-22T02:01:04;16.45;;;5.93;;
58470;SDS011;44258;51.288;12.068;2023-02-22T02:03:32;14.30;;;5.72;;
58470;SDS011;44258;51.288;12.068;2023-02-22T02:06:04;12.65;;;5.07;;
58470;SDS011;44258;51.288;12.068;2023-02-22T02:08:40;14.20;;;5.43;;
58470;SDS011;44258;51.288;12.068;2023-02-22T02:11:16;11.27;;;4.90;;
58470;SDS011;44258;51.288;12.068;2023-02-22T02:13:46;13.98;;;5.55;;
58470;SDS011;44258;51.288;12.068;2023-02-22T02:16:14;13.45;;;5.50;;
58470;SDS011;44258;51.288;12.068;2023-02-22T02:18:42;14.15;;;5.57;;
58470;SDS011;44258;51.288;12.068;2023-02-22T02:21:25;14.50;;;5.80;;
58470;SDS011;44258;51.288;12.068;2023-02-22T02:24:10;13.60;;;5.63;;
58470;SDS011;44258;51.288;12.068;2023-02-22T02:32:55;13.52;;;5.55;;
58470;SDS011;44258;51.288;12.068;2023-02-22T02:35:27;16.35;;;6.38;;
58470;SDS011;44258;51.288;12.068;2023-02-22T02:38:04;16.20;;;6.55;;
58470;SDS011;44258;51.288;12.068;2023-02-22T02:40:38;15.30;;;5.95;;
58470;SDS011;44258;51.288;12.068;2023-02-22T02:45:44;16.58;;;6.63;;
58470;SDS011;44258;51.288;12.068;2023-02-22T02:48:16;18.77;;;7.38;;
58470;SDS011;44258;51.288;12.068;2023-02-22T02:50:48;16.90;;;7.18;;
58470;SDS011;44258;51.288;12.068;2023-02-22T02:53:17;16.85;;;6.70;;
58470;SDS011;44258;51.288;12.068;2023-02-22T02:55:46;16.10;;;7.18;;
58470;SDS011;44258;51.288;12.068;2023-02-22T02:58:15;15.13;;;6.53;;
58470;SDS011;44258;51.288;12.068;2023-02-22T03:00:44;17.25;;;6.05;;
58470;SDS011;44258;51.288;12.068;2023-02-22T03:03:23;16.15;;;6.07;;
58470;SDS011;44258;51.288;12.068;2023-02-22T03:06:11;15.95;;;6.15;;
58470;SDS011;44258;51.288;12.068;2023-02-22T03:08:50;16.10;;;6.60;;
58470;SDS011;44258;51.288;12.068;2023-02-22T03:11:26;17.67;;;6.82;;
58470;SDS011;44258;51.288;12.068;2023-02-22T03:13:57;17.75;;;6.90;;
58470;SDS011;44258;51.288;12.068;2023-02-22T03:19:06;17.40;;;6.75;;
58470;SDS011;44258;51.288;12.068;2023-02-22T03:21:39;15.32;;;6.47;;
58470;SDS011;44258;51.288;12.068;2023-02-22T03:24:11;17.02;;;7.28;;
58470;SDS011;44258;51.288;12.068;2023-02-22T03:26:45;16.95;;;6.40;;
58470;SDS011;44258;51.288;12.068;2023-02-22T03:29:18;18.23;;;7.35;;
58470;SDS011;44258;51.288;12.068;2023-02-22T03:31:50;16.88;;;6.45;;
58470;SDS011;44258;51.288;12.068;2023-02-22T03:34:26;18.33;;;6.93;;
58470;SDS011;44258;51.288;12.068;2023-02-22T03:36:59;18.58;;;7.25;;
58470;SDS011;44258;51.288;12.068;2023-02-22T03:39:28;17.80;;;6.93;;
58470;SDS011;44258;51.288;12.068;2023-02-22T03:41:56;18.15;;;7.03;;
58470;SDS011;44258;51.288;12.068;2023-02-22T03:44:30;16.88;;;7.15;;
58470;SDS011;44258;51.288;12.068;2023-02-22T03:47:03;19.85;;;7.38;;
58470;SDS011;44258;51.288;12.068;2023-02-22T03:49:36;17.63;;;6.93;;
58470;SDS011;44258;51.288;12.068;2023-02-22T03:52:07;19.77;;;7.70;;
58470;SDS011;44258;51.288;12.068;2023-02-22T03:54:36;19.98;;;7.30;;
58470;SDS011;44258;51.288;12.068;2023-02-22T03:57:05;19.58;;;7.53;;
58470;SDS011;44258;51.288;12.068;2023-02-22T03:59:37;20.85;;;7.30;;
58470;SDS011;44258;51.288;12.068;2023-02-22T04:02:04;19.08;;;7.30;;
58470;SDS011;44258;51.288;12.068;2023-02-22T04:04:31;20.15;;;7.93;;
58470;SDS011;44258;51.288;12.068;2023-02-22T04:06:59;18.35;;;7.35;;
58470;SDS011;44258;51.288;12.068;2023-02-22T04:09:25;18.17;;;6.57;;
58470;SDS011;44258;51.288;12.068;2023-02-22T04:11:52;17.92;;;7.30;;
58470;SDS011;44258;51.288;12.068;2023-02-22T04:14:18;18.40;;;7.15;;
58470;SDS011;44258;51.288;12.068;2023-02-22T04:16:44;19.25;;;8.02;;
58470;SDS011;44258;51.288;12.068;2023-02-22T04:19:11;18.40;;;7.88;;
58470;SDS011;44258;51.288;12.068;2023-02-22T04:21:37;18.60;;;6.65;;
58470;SDS011;44258;51.288;12.068;2023-02-22T04:24:05;21.38;;;7.82;;
58470;SDS011;44258;51.288;12.068;2023-02-22T04:26:32;20.83;;;8.60;;
58470;SDS011;44258;51.288;12.068;2023-02-22T04:28:58;20.13;;;8.00;;
58470;SDS011;44258;51.288;12.068;2023-02-22T04:31:25;18.98;;;7.72;;
58470;SDS011;44258;51.288;12.068;2023-02-22T04:33:51;21.65;;;7.78;;
58470;SDS011;44258;51.288;12.068;2023-02-22T04:36:18;20.55;;;7.13;;
58470;SDS011;44258;51.288;12.068;2023-02-22T04:38:45;19.42;;;7.25;;
58470;SDS011;44258;51.288;12.068;2023-02-22T04:41:15;18.25;;;7.00;;
58470;SDS011;44258;51.288;12.068;2023-02-22T04:43:42;18.67;;;7.57;;
58470;SDS011;44258;51.288;12.068;2023-02-22T04:46:09;23.00;;;8.95;;
58470;SDS011;44258;51.288;12.068;2023-02-22T04:48:35;21.50;;;8.45;;
58470;SDS011;44258;51.288;12.068;2023-02-22T04:51:02;19.83;;;8.23;;
58470;SDS011;44258;51.288;12.068;2023-02-22T04:53:32;18.63;;;7.90;;
58470;SDS011;44258;51.288;12.068;2023-02-22T04:55:59;19.08;;;7.25;;
58470;SDS011;44258;51.288;12.068;2023-02-22T04:58:27;19.90;;;8.52;;
58470;SDS011;44258;51.288;12.068;2023-02-22T05:00:55;18.52;;;7.18;;
58470;SDS011;44258;51.288;12.068;2023-02-22T05:03:22;19.88;;;7.28;;
58470;SDS011;44258;51.288;12.068;2023-02-22T05:05:50;18.25;;;7.75;;
58470;SDS011;44258;51.288;12.068;2023-02-22T05:08:17;20.55;;;8.05;;
58470;SDS011;44258;51.288;12.068;2023-02-22T05:10:43;18.45;;;6.80;;
58470;SDS011;44258;51.288;12.068;2023-02-22T05:13:10;19.70;;;7.05;;
58470;SDS011;44258;51.288;12.068;2023-02-22T05:15:38;19.17;;;7.15;;
58470;SDS011;44258;51.288;12.068;2023-02-22T05:18:05;19.25;;;7.57;;
58470;SDS011;44258;51.288;12.068;2023-02-22T05:20:32;17.20;;;7.28;;
58470;SDS011;44258;51.288;12.068;2023-02-22T05:23:00;22.85;;;8.13;;
58470;SDS011;44258;51.288;12.068;2023-02-22T05:25:29;22.13;;;7.57;;
58470;SDS011;44258;51.288;12.068;2023-02-22T05:27:56;17.02;;;7.47;;
58470;SDS011;44258;51.288;12.068;2023-02-22T05:30:25;18.52;;;7.35;;
58470;SDS011;44258;51.288;12.068;2023-02-22T05:32:55;18.10;;;7.15;;
58470;SDS011;44258;51.288;12.068;2023-02-22T05:35:23;17.83;;;6.80;;
58470;SDS011;44258;51.288;12.068;2023-02-22T05:37:51;18.63;;;7.03;;
58470;SDS011;44258;51.288;12.068;2023-02-22T05:40:18;18.60;;;7.13;;
58470;SDS011;44258;51.288;12.068;2023-02-22T05:42:46;19.98;;;8.00;;
58470;SDS011;44258;51.288;12.068;2023-02-22T05:45:13;18.27;;;7.90;;
58470;SDS011;44258;51.288;12.068;2023-02-22T05:47:40;18.23;;;7.43;;
58470;SDS011;44258;51.288;12.068;2023-02-22T05:50:09;19.48;;;7.63;;
58470;SDS011;44258;51.288;12.068;2023-02-22T05:52:35;18.73;;;7.80;;
58470;SDS011;44258;51.288;12.068;2023-02-22T05:55:02;18.77;;;7.40;;
58470;SDS011;44258;51.288;12.068;2023-02-22T05:57:30;22.42;;;7.63;;
58470;SDS011;44258;51.288;12.068;2023-02-22T05:59:57;20.20;;;8.10;;
58470;SDS011;44258;51.288;12.068;2023-02-22T06:02:24;21.63;;;9.35;;
58470;SDS011;44258;51.288;12.068;2023-02-22T06:04:50;21.73;;;7.95;;
58470;SDS011;44258;51.288;12.068;2023-02-22T06:07:18;20.02;;;7.68;;
58470;SDS011;44258;51.288;12.068;2023-02-22T06:09:44;19.90;;;7.88;;
58470;SDS011;44258;51.288;12.068;2023-02-22T06:12:11;19.60;;;7.72;;
58470;SDS011;44258;51.288;12.068;2023-02-22T06:14:37;22.42;;;8.23;;
58470;SDS011;44258;51.288;12.068;2023-02-22T06:17:05;22.25;;;8.32;;
58470;SDS011;44258;51.288;12.068;2023-02-22T06:19:31;21.50;;;7.95;;
58470;SDS011;44258;51.288;12.068;2023-02-22T06:21:58;22.70;;;8.10;;
58470;SDS011;44258;51.288;12.068;2023-02-22T06:24:28;20.48;;;7.95;;
58470;SDS011;44258;51.288;12.068;2023-02-22T06:26:54;24.38;;;9.07;;
58470;SDS011;44258;51.288;12.068;2023-02-22T06:29:22;23.45;;;8.93;;
58470;SDS011;44258;51.288;12.068;2023-02-22T06:31:49;22.95;;;8.65;;
58470;SDS011;44258;51.288;12.068;2023-02-22T06:34:16;20.60;;;8.27;;
58470;SDS011;44258;51.288;12.068;2023-02-22T06:36:44;21.52;;;8.65;;
58470;SDS011;44258;51.288;12.068;2023-02-22T06:39:12;19.10;;;7.72;;
58470;SDS011;44258;51.288;12.068;2023-02-22T06:41:41;21.27;;;8.48;;
58470;SDS011;44258;51.288;12.068;2023-02-22T06:44:11;23.65;;;8.95;;
58470;SDS011;44258;51.288;12.068;2023-02-22T06:46:39;20.45;;;8.40;;
58470;SDS011;44258;51.288;12.068;2023-02-22T06:49:05;24.58;;;9.07;;
58470;SDS011;44258;51.288;12.068;2023-02-22T06:51:34;22.75;;;9.05;;
58470;SDS011;44258;51.288;12.068;2023-02-22T06:54:02;23.27;;;8.10;;
58470;SDS011;44258;51.288;12.068;2023-02-22T06:56:28;20.63;;;9.50;;
58470;SDS011;44258;51.288;12.068;2023-02-22T06:58:57;24.15;;;8.45;;
58470;SDS011;44258;51.288;12.068;2023-02-22T07:01:26;21.67;;;8.55;;
58470;SDS011;44258;51.288;12.068;2023-02-22T07:03:52;23.80;;;9.25;;
58470;SDS011;44258;51.288;12.068;2023-02-22T07:06:19;22.70;;;8.70;;
58470;SDS011;44258;51.288;12.068;2023-02-22T07:08:46;25.00;;;8.32;;
58470;SDS011;44258;51.288;12.068;2023-02-22T07:11:14;23.60;;;9.20;;
58470;SDS011;44258;51.288;12.068;2023-02-22T07:13:41;21.65;;;8.52;;
58470;SDS011;44258;51.288;12.068;2023-02-22T07:16:09;19.33;;;7.80;;
58470;SDS011;44258;51.288;12.068;2023-02-22T07:18:35;24.10;;;8.98;;
58470;SDS011;44258;51.288;12.068;2023-02-22T07:21:03;19.42;;;8.45;;
58470;SDS011;44258;51.288;12.068;2023-02-22T07:23:29;22.10;;;8.25;;
58470;SDS011;44258;51.288;12.068;2023-02-22T07:25:58;20.05;;;8.13;;
58470;SDS011;44258;51.288;12.068;2023-02-22T07:28:25;19.30;;;8.90;;
58470;SDS011;44258;51.288;12.068;2023-02-22T07:30:52;19.08;;;7.65;;
58470;SDS011;44258;51.288;12.068;2023-02-22T07:33:21;20.77;;;9.50;;
58470;SDS011;44258;51.288;12.068;2023-02-22T07:35:47;21.23;;;9.35;;
58470;SDS011;44258;51.288;12.068;2023-02-22T07:38:16;20.98;;;8.43;;
58470;SDS011;44258;51.288;12.068;2023-02-22T07:40:47;19.20;;;8.23;;
58470;SDS011;44258;51.288;12.068;2023-02-22T07:43:14;20.60;;;8.27;;
58470;SDS011;44258;51.288;12.068;2023-02-22T07:45:42;21.95;;;8.57;;
58470;SDS011;44258;51.288;12.068;2023-02-22T07:48:09;22.67;;;8.93;;
58470;SDS011;44258;51.288;12.068;2023-02-22T07:50:39;22.00;;;8.20;;
58470;SDS011;44258;51.288;12.068;2023-02-22T07:53:06;20.55;;;8.45;;
58470;SDS011;44258;51.288;12.068;2023-02-22T07:55:36;22.73;;;8.95;;
58470;SDS011;44258;51.288;12.068;2023-02-22T07:58:04;20.75;;;9.02;;
58470;SDS011;44258;51.288;12.068;2023-02-22T08:00:32;23.20;;;9.07;;
58470;SDS011;44258;51.288;12.068;2023-02-22T08:03:00;20.33;;;8.55;;
58470;SDS011;44258;51.288;12.068;2023-02-22T08:05:28;19.75;;;8.25;;
58470;SDS011;44258;51.288;12.068;2023-02-22T08:07:57;22.42;;;8.32;;
58470;SDS011;44258;51.288;12.068;2023-02-22T08:10:25;20.88;;;8.05;;
58470;SDS011;44258;51.288;12.068;2023-02-22T08:12:52;23.48;;;8.85;;
58470;SDS011;44258;51.288;12.068;2023-02-22T08:15:21;22.15;;;8.82;;
58470;SDS011;44258;51.288;12.068;2023-02-22T08:17:50;26.45;;;8.93;;
58470;SDS011;44258;51.288;12.068;2023-02-22T08:20:17;23.25;;;9.32;;
58470;SDS011;44258;51.288;12.068;2023-02-22T08:22:44;22.20;;;8.93;;
58470;SDS011;44258;51.288;12.068;2023-02-22T08:25:14;22.70;;;9.00;;
58470;SDS011;44258;51.288;12.068;2023-02-22T08:27:43;20.83;;;8.15;;
58470;SDS011;44258;51.288;12.068;2023-02-22T08:30:11;23.80;;;8.75;;
58470;SDS011;44258;51.288;12.068;2023-02-22T08:32:39;23.38;;;8.73;;
58470;SDS011;44258;51.288;12.068;2023-02-22T08:35:06;19.27;;;7.68;;
58470;SDS011;44258;51.288;12.068;2023-02-22T08:37:33;20.17;;;8.25;;
58470;SDS011;44258;51.288;12.068;2023-02-22T08:39:59;23.05;;;8.63;;
58470;SDS011;44258;51.288;12.068;2023-02-22T08:42:27;22.27;;;8.82;;
58470;SDS011;44258;51.288;12.068;2023-02-22T08:44:54;21.92;;;8.65;;
58470;SDS011;44258;51.288;12.068;2023-02-22T08:47:20;22.65;;;8.60;;
58470;SDS011;44258;51.288;12.068;2023-02-22T08:49:47;20.35;;;8.25;;
58470;SDS011;44258;51.288;12.068;2023-02-22T08:52:13;19.17;;;8.82;;
58470;SDS011;44258;51.288;12.068;2023-02-22T08:54:40;20.10;;;8.50;;
58470;SDS011;44258;51.288;12.068;2023-02-22T08:57:06;21.98;;;8.98;;
58470;SDS011;44258;51.288;12.068;2023-02-22T08:59:34;20.95;;;8.95;;
58470;SDS011;44258;51.288;12.068;2023-02-22T09:02:00;22.45;;;9.85;;
58470;SDS011;44258;51.288;12.068;2023-02-22T09:04:27;21.17;;;8.38;;
58470;SDS011;44258;51.288;12.068;2023-02-22T09:06:54;27.92;;;8.75;;
58470;SDS011;44258;51.288;12.068;2023-02-22T09:09:20;21.90;;;8.30;;
58470;SDS011;44258;51.288;12.068;2023-02-22T09:11:47;26.20;;;10.15;;
58470;SDS011;44258;51.288;12.068;2023-02-22T09:14:15;25.08;;;9.27;;
58470;SDS011;44258;51.288;12.068;2023-02-22T09:16:43;23.00;;;8.82;;
58470;SDS011;44258;51.288;12.068;2023-02-22T09:19:10;23.40;;;7.97;;
58470;SDS011;44258;51.288;12.068;2023-02-22T09:21:37;20.17;;;7.78;;
58470;SDS011;44258;51.288;12.068;2023-02-22T09:24:05;20.27;;;8.43;;
58470;SDS011;44258;51.288;12.068;2023-02-22T09:26:33;20.73;;;8.70;;
58470;SDS011;44258;51.288;12.068;2023-02-22T09:29:03;20.30;;;8.88;;
58470;SDS011;44258;51.288;12.068;2023-02-22T09:31:30;22.20;;;8.88;;
58470;SDS011;44258;51.288;12.068;2023-02-22T09:34:00;22.65;;;8.90;;
58470;SDS011;44258;51.288;12.068;2023-02-22T09:36:27;19.80;;;8.20;;
58470;SDS011;44258;51.288;12.068;2023-02-22T09:38:53;21.02;;;7.85;;
58470;SDS011;44258;51.288;12.068;2023-02-22T09:41:22;20.23;;;8.45;;
58470;SDS011;44258;51.288;12.068;2023-02-22T09:44:00;18.88;;;7.38;;
58470;SDS011;44258;51.288;12.068;2023-02-22T09:46:41;21.88;;;10.27;;
58470;SDS011;44258;51.288;12.068;2023-02-22T09:49:15;22.40;;;8.52;;
58470;SDS011;44258;51.288;12.068;2023-02-22T09:51:46;20.67;;;7.95;;
58470;SDS011;44258;51.288;12.068;2023-02-22T09:54:18;18.58;;;6.90;;
58470;SDS011;44258;51.288;12.068;2023-02-22T09:56:50;17.73;;;7.50;;
58470;SDS011;44258;51.288;12.068;2023-02-22T09:59:22;17.35;;;9.02;;
58470;SDS011;44258;51.288;12.068;2023-02-22T10:01:54;24.70;;;11.23;;
58470;SDS011;44258;51.288;12.068;2023-02-22T10:04:27;21.55;;;9.98;;
58470;SDS011;44258;51.288;12.068;2023-02-22T10:07:09;30.17;;;13.65;;
58470;SDS011;44258;51.288;12.068;2023-02-22T10:09:40;26.77;;;12.18;;
58470;SDS011;44258;51.288;12.068;2023-02-22T10:12:09;23.40;;;10.68;;
58470;SDS011;44258;51.288;12.068;2023-02-22T10:14:42;18.02;;;8.30;;
58470;SDS011;44258;51.288;12.068;2023-02-22T10:17:23;17.33;;;7.25;;
58470;SDS011;44258;51.288;12.068;2023-02-22T10:20:05;17.70;;;7.28;;
58470;SDS011;44258;51.288;12.068;2023-02-22T10:22:48;17.33;;;7.35;;
58470;SDS011;44258;51.288;12.068;2023-02-22T10:25:27;16.95;;;8.23;;
58470;SDS011;44258;51.288;12.068;2023-02-22T10:27:59;18.88;;;7.55;;
58470;SDS011;44258;51.288;12.068;2023-02-22T10:30:32;17.35;;;7.85;;
58470;SDS011;44258;51.288;12.068;2023-02-22T10:33:04;17.15;;;7.75;;
58470;SDS011;44258;51.288;12.068;2023-02-22T10:35:36;16.77;;;6.95;;
58470;SDS011;44258;51.288;12.068;2023-02-22T10:38:09;18.35;;;7.18;;
58470;SDS011;44258;51.288;12.068;2023-02-22T10:43:10;17.85;;;7.50;;
58470;SDS011;44258;51.288;12.068;2023-02-22T10:45:36;18.85;;;9.15;;
58470;SDS011;44258;51.288;12.068;2023-02-22T10:48:06;19.25;;;7.63;;
58470;SDS011;44258;51.288;12.068;2023-02-22T10:50:37;16.70;;;7.15;;
58470;SDS011;44258;51.288;12.068;2023-02-22T10:53:05;17.90;;;7.13;;
58470;SDS011;44258;51.288;12.068;2023-02-22T10:55:35;17.13;;;7.00;;
58470;SDS011;44258;51.288;12.068;2023-02-22T10:58:38;18.83;;;7.68;;
58470;SDS011;44258;51.288;12.068;2023-02-22T11:01:16;19.80;;;7.07;;
58470;SDS011;44258;51.288;12.068;2023-02-22T11:03:44;18.42;;;7.88;;
58470;SDS011;44258;51.288;12.068;2023-02-22T11:06:18;19.63;;;7.40;;
58470;SDS011;44258;51.288;12.068;2023-02-22T11:08:46;18.98;;;7.45;;
58470;SDS011;44258;51.288;12.068;2023-02-22T11:11:22;16.95;;;7.38;;
58470;SDS011;44258;51.288;12.068;2023-02-22T11:13:52;16.23;;;7.40;;
58470;SDS011;44258;51.288;12.068;2023-02-22T11:16:24;15.68;;;6.82;;
58470;SDS011;44258;51.288;12.068;2023-02-22T11:18:58;16.92;;;6.78;;
58470;SDS011;44258;51.288;12.068;2023-02-22T11:21:28;15.13;;;7.18;;
58470;SDS011;44258;51.288;12.068;2023-02-22T11:24:02;17.75;;;6.30;;
58470;SDS011;44258;51.288;12.068;2023-02-22T11:29:08;17.75;;;7.03;;
58470;SDS011;44258;51.288;12.068;2023-02-22T11:31:44;19.00;;;6.40;;
58470;SDS011;44258;51.288;12.068;2023-02-22T11:34:31;16.67;;;7.07;;
58470;SDS011;44258;51.288;12.068;2023-02-22T11:37:16;16.15;;;6.47;;
58470;SDS011;44258;51.288;12.068;2023-02-22T11:39:46;14.55;;;6.45;;
58470;SDS011;44258;51.288;12.068;2023-02-22T11:42:22;14.90;;;6.45;;
58470;SDS011;44258;51.288;12.068;2023-02-22T11:44:52;17.42;;;7.00;;
58470;SDS011;44258;51.288;12.068;2023-02-22T11:47:35;17.88;;;6.57;;
58470;SDS011;44258;51.288;12.068;2023-02-22T11:50:16;13.90;;;6.65;;
58470;SDS011;44258;51.288;12.068;2023-02-22T11:52:50;18.05;;;5.80;;
58470;SDS011;44258;51.288;12.068;2023-02-22T11:55:22;14.60;;;4.97;;
58470;SDS011;44258;51.288;12.068;2023-02-22T11:57:59;18.63;;;6.60;;
58470;SDS011;44258;51.288;12.068;2023-02-22T12:00:37;14.07;;;5.82;;
58470;SDS011;44258;51.288;12.068;2023-02-22T12:03:31;14.57;;;6.40;;
58470;SDS011;44258;51.288;12.068;2023-02-22T12:06:19;14.88;;;5.50;;
58470;SDS011;44258;51.288;12.068;2023-02-22T12:09:05;12.57;;;4.55;;
58470;SDS011;44258;51.288;12.068;2023-02-22T12:11:41;13.40;;;5.00;;
58470;SDS011;44258;51.288;12.068;2023-02-22T12:14:20;14.65;;;5.63;;
58470;SDS011;44258;51.288;12.068;2023-02-22T12:17:01;13.80;;;5.78;;
58470;SDS011;44258;51.288;12.068;2023-02-22T12:19:38;12.15;;;5.60;;
58470;SDS011;44258;51.288;12.068;2023-02-22T12:22:09;15.48;;;5.95;;
58470;SDS011;44258;51.288;12.068;2023-02-22T12:24:42;14.07;;;5.47;;
58470;SDS011;44258;51.288;12.068;2023-02-22T12:27:14;15.43;;;5.55;;
58470;SDS011;44258;51.288;12.068;2023-02-22T12:29:45;15.35;;;5.53;;
58470;SDS011;44258;51.288;12.068;2023-02-22T12:32:15;14.50;;;5.32;;
58470;SDS011;44258;51.288;12.068;2023-02-22T12:34:51;16.52;;;5.53;;
58470;SDS011;44258;51.288;12.068;2023-02-22T12:37:21;14.65;;;5.70;;
58470;SDS011;44258;51.288;12.068;2023-02-22T12:39:54;17.48;;;6.57;;
58470;SDS011;44258;51.288;12.068;2023-02-22T12:42:33;15.73;;;5.70;;
58470;SDS011;44258;51.288;12.068;2023-02-22T12:45:11;13.52;;;5.35;;
58470;SDS011;44258;51.288;12.068;2023-02-22T12:47:43;13.38;;;5.38;;
58470;SDS011;44258;51.288;12.068;2023-02-22T12:52:45;13.45;;;4.65;;
58470;SDS011;44258;51.288;12.068;2023-02-22T12:55:19;13.20;;;4.70;;
58470;SDS011;44258;51.288;12.068;2023-02-22T12:57:52;14.13;;;5.30;;
58470;SDS011;44258;51.288;12.068;2023-02-22T13:00:24;14.88;;;5.47;;
58470;SDS011;44258;51.288;12.068;2023-02-22T13:02:57;13.57;;;5.93;;
58470;SDS011;44258;51.288;12.068;2023-02-22T13:05:26;14.90;;;5.97;;
58470;SDS011;44258;51.288;12.068;2023-02-22T13:08:04;15.43;;;6.32;;
58470;SDS011;44258;51.288;12.068;2023-02-22T13:13:35;16.15;;;6.05;;
58470;SDS011;44258;51.288;12.068;2023-02-22T13:16:23;14.57;;;5.38;;
58470;SDS011;44258;51.288;12.068;2023-02-22T13:18:59;13.35;;;5.43;;
58470;SDS011;44258;51.288;12.068;2023-02-22T13:21:30;19.15;;;6.43;;
58470;SDS011;44258;51.288;12.068;2023-02-22T13:24:10;16.05;;;6.18;;
58470;SDS011;44258;51.288;12.068;2023-02-22T13:26:46;15.40;;;6.60;;
58470;SDS011;44258;51.288;12.068;2023-02-22T13:29:18;15.15;;;5.65;;
58470;SDS011;44258;51.288;12.068;2023-02-22T13:31:54;15.57;;;5.90;;
58470;SDS011;44258;51.288;12.068;2023-02-22T13:34:32;12.50;;;5.57;;
58470;SDS011;44258;51.288;12.068;2023-02-22T13:37:18;14.38;;;5.60;;
58470;SDS011;44258;51.288;12.068;2023-02-22T13:43:13;15.02;;;5.40;;
58470;SDS011;44258;51.288;12.068;2023-02-22T13:46:07;14.15;;;6.30;;
58470;SDS011;44258;51.288;12.068;2023-02-22T13:51:42;16.15;;;6.15;;
58470;SDS011;44258;51.288;12.068;2023-02-22T13:54:13;11.43;;;4.78;;
58470;SDS011;44258;51.288;12.068;2023-02-22T13:56:47;11.63;;;4.65;;
58470;SDS011;44258;51.288;12.068;2023-02-22T13:59:23;13.70;;;4.97;;
58470;SDS011;44258;51.288;12.068;2023-02-22T14:01:52;13.70;;;5.10;;
58470;SDS011;44258;51.288;12.068;2023-02-22T14:13:05;13.05;;;5.03;;
58470;SDS011;44258;51.288;12.068;2023-02-22T14:15:33;13.82;;;5.68;;
58470;SDS011;44258;51.288;12.068;2023-02-22T14:18:00;14.25;;;5.55;;
58470;SDS011;44258;51.288;12.068;2023-02-22T14:20:29;14.18;;;5.72;;
58470;SDS011;44258;51.288;12.068;2023-02-22T14:25:54;20.27;;;8.02;;
58470;SDS011;44258;51.288;12.068;2023-02-22T14:28:33;20.67;;;7.03;;
58470;SDS011;44258;51.288;12.068;2023-02-22T14:31:05;20.00;;;6.07;;
58470;SDS011;44258;51.288;12.068;2023-02-22T14:33:49;14.38;;;5.82;;
58470;SDS011;44258;51.288;12.068;2023-02-22T14:36:19;14.38;;;5.88;;
58470;SDS011;44258;51.288;12.068;2023-02-22T14:38:49;13.00;;;5.35;;
58470;SDS011;44258;51.288;12.068;2023-02-22T14:41:18;13.57;;;5.28;;
58470;SDS011;44258;51.288;12.068;2023-02-22T14:43:50;14.88;;;4.53;;
58470;SDS011;44258;51.288;12.068;2023-02-22T14:46:23;13.93;;;5.05;;
58470;SDS011;44258;51.288;12.068;2023-02-22T14:48:54;13.70;;;5.82;;
58470;SDS011;44258;51.288;12.068;2023-02-22T14:51:26;15.93;;;6.28;;
58470;SDS011;44258;51.288;12.068;2023-02-22T14:53:58;16.80;;;6.25;;
58470;SDS011;44258;51.288;12.068;2023-02-22T14:56:29;16.05;;;6.00;;
58470;SDS011;44258;51.288;12.068;2023-02-22T14:59:04;15.70;;;5.70;;
58470;SDS011;44258;51.288;12.068;2023-02-22T15:01:41;17.88;;;6.57;;
58470;SDS011;44258;51.288;12.068;2023-02-22T15:04:17;14.05;;;6.47;;
58470;SDS011;44258;51.288;12.068;2023-02-22T15:06:45;19.55;;;8.05;;
58470;SDS011;44258;51.288;12.068;2023-02-22T15:09:13;16.88;;;6.30;;
58470;SDS011;44258;51.288;12.068;2023-02-22T15:11:47;16.20;;;6.25;;
58470;SDS011;44258;51.288;12.068;2023-02-22T15:14:16;15.32;;;6.63;;
58470;SDS011;44258;51.288;12.068;2023-02-22T15:16:47;14.70;;;6.22;;
58470;SDS011;44258;51.288;12.068;2023-02-22T15:19:16;15.60;;;6.53;;